createdAt,value
2018-12-04T00:00:57.968Z,10.56
2018-12-04T00:03:24.908Z,10.31
2018-12-04T00:05:51.828Z,10.31
2018-12-04T00:08:18.782Z,10.25
2018-12-04T00:10:45.726Z,10.31
2018-12-04T00:13:12.700Z,10.25
2018-12-04T00:15:39.686Z,10.25
2018-12-04T00:18:06.626Z,10.38
2018-12-04T00:20:33.600Z,10.44
2018-12-04T00:23:00.784Z,10.31
2018-12-04T00:25:27.735Z,10.38
2018-12-04T00:27:54.690Z,10.44
2018-12-04T00:30:21.732Z,10.25
2018-12-04T00:32:48.645Z,10.25
2018-12-04T00:35:15.626Z,10.50
2018-12-04T00:37:42.562Z,10.25
2018-12-04T00:40:09.568Z,10.31
2018-12-04T00:42:36.575Z,10.56
2018-12-04T00:45:05.196Z,10.44
2018-12-04T00:47:32.164Z,10.63
2018-12-04T00:49:59.114Z,10.44
2018-12-04T00:52:26.026Z,10.44
2018-12-04T00:54:52.968Z,10.63
2018-12-04T00:57:20.023Z,10.38
2018-12-04T00:59:47.034Z,10.19
2018-12-04T01:02:13.969Z,10.31
2018-12-04T01:04:40.946Z,10.25
2018-12-04T01:07:07.913Z,10.31
2018-12-04T01:09:34.887Z,10.25
2018-12-04T01:12:01.821Z,10.25
2018-12-04T01:14:28.760Z,10.31
2018-12-04T01:16:55.715Z,10.19
2018-12-04T01:19:22.706Z,10.44
2018-12-04T01:21:49.819Z,10.25
2018-12-04T01:24:16.744Z,10.19
2018-12-04T01:26:43.687Z,10.44
2018-12-04T01:29:10.638Z,10.19
2018-12-04T01:31:37.545Z,10.13
2018-12-04T01:34:04.481Z,10.06
2018-12-04T01:36:31.423Z,10.31
2018-12-04T01:38:58.360Z,10.13
2018-12-04T01:41:25.286Z,10.06
2018-12-04T01:43:52.276Z,10.19
2018-12-04T01:46:19.303Z,10.06
2018-12-04T01:48:46.228Z,9.94
2018-12-04T01:51:13.503Z,10.00
2018-12-04T01:53:40.464Z,10.25
2018-12-04T01:56:07.366Z,10.13
2018-12-04T01:58:34.267Z,10.25
2018-12-04T02:01:01.221Z,10.38
2018-12-04T02:03:28.183Z,10.13
2018-12-04T02:05:56.006Z,10.19
2018-12-04T02:08:23.014Z,10.25
2018-12-04T02:10:49.994Z,10.31
2018-12-04T02:13:16.980Z,10.44
2018-12-04T02:15:43.946Z,10.31
2018-12-04T02:18:10.918Z,10.44
2018-12-04T02:20:38.952Z,10.31
2018-12-04T02:23:05.858Z,10.38
2018-12-04T02:25:32.816Z,10.63
2018-12-04T02:27:59.794Z,10.63
2018-12-04T02:30:26.741Z,10.75
2018-12-04T02:32:53.730Z,10.50
2018-12-04T02:35:20.712Z,10.38
2018-12-04T02:37:47.658Z,10.56
2018-12-04T02:40:14.627Z,10.63
2018-12-04T02:42:41.556Z,10.63
2018-12-04T02:45:08.501Z,10.44
2018-12-04T02:47:35.457Z,10.50
2018-12-04T02:50:02.439Z,10.63
2018-12-04T02:52:30.007Z,10.81
2018-12-04T02:54:56.957Z,10.88
2018-12-04T02:57:25.966Z,10.75
2018-12-04T02:59:52.909Z,10.94
2018-12-04T03:02:20.117Z,10.94
2018-12-04T03:04:47.050Z,10.88
2018-12-04T03:07:13.981Z,10.94
2018-12-04T03:09:41.462Z,10.81
2018-12-04T03:12:08.405Z,11.06
2018-12-04T03:14:35.342Z,11.00
2018-12-04T03:17:03.065Z,10.81
2018-12-04T03:19:29.974Z,10.75
2018-12-04T03:21:56.938Z,10.63
2018-12-04T03:24:23.880Z,10.44
2018-12-04T03:26:51.002Z,10.25
2018-12-04T03:29:17.942Z,9.94
2018-12-04T03:31:44.893Z,10.19
2018-12-04T03:34:11.854Z,9.81
2018-12-04T03:36:38.770Z,9.69
2018-12-04T03:39:07.065Z,10.06
2018-12-04T03:41:34.089Z,9.81
2018-12-04T03:44:01.020Z,9.75
2018-12-04T03:46:27.971Z,9.56
2018-12-04T03:48:54.971Z,9.50
2018-12-04T03:51:21.897Z,9.25
2018-12-04T03:53:48.827Z,9.44
2018-12-04T03:56:15.753Z,9.25
2018-12-04T03:58:42.753Z,9.38
2018-12-04T04:01:09.681Z,9.63
2018-12-04T04:03:36.602Z,9.44
2018-12-04T04:06:03.549Z,9.25
2018-12-04T04:08:30.530Z,9.19
2018-12-04T04:10:57.466Z,9.19
2018-12-04T04:18:20.324Z,8.94
2018-12-04T04:20:48.643Z,9.25
2018-12-04T04:23:14.279Z,9.25
2018-12-04T04:25:41.184Z,9.13
2018-12-04T04:28:08.205Z,9.06
2018-12-04T04:30:35.130Z,9.13
2018-12-04T04:33:02.033Z,9.13
2018-12-04T04:35:28.959Z,9.00
2018-12-04T04:37:56.710Z,9.38
2018-12-04T04:40:23.680Z,9.38
2018-12-04T04:42:50.621Z,8.94
2018-12-04T04:45:17.589Z,9.31
2018-12-04T04:47:44.500Z,9.38
2018-12-04T04:50:11.426Z,9.13
2018-12-04T04:52:38.379Z,9.00
2018-12-04T04:55:05.289Z,9.13
2018-12-04T04:57:32.199Z,9.19
2018-12-04T04:59:59.117Z,9.13
2018-12-04T05:02:26.033Z,9.00
2018-12-04T05:04:53.006Z,9.06
2018-12-04T05:07:20.026Z,9.06
2018-12-04T05:09:46.961Z,9.06
2018-12-04T05:12:13.869Z,9.13
2018-12-04T05:14:40.880Z,8.94
2018-12-04T05:17:07.894Z,8.75
2018-12-04T05:19:34.807Z,9.00
2018-12-04T05:22:01.782Z,8.81
2018-12-04T05:24:29.290Z,8.94
2018-12-04T05:26:56.288Z,8.88
2018-12-04T05:29:23.238Z,8.81
2018-12-04T05:31:50.178Z,8.81
2018-12-04T05:34:18.778Z,8.94
2018-12-04T05:36:45.808Z,8.88
2018-12-04T05:39:12.853Z,8.88
2018-12-04T05:41:39.970Z,8.88
2018-12-04T05:44:06.896Z,8.81
2018-12-04T05:46:33.880Z,8.88
2018-12-04T05:49:00.785Z,8.94
2018-12-04T05:51:27.731Z,8.81
2018-12-04T05:53:54.782Z,8.88
2018-12-04T05:56:21.736Z,8.81
2018-12-04T05:58:48.785Z,8.81
2018-12-04T06:01:15.897Z,8.75
2018-12-04T06:03:42.847Z,8.75
2018-12-04T06:06:10.355Z,8.81
2018-12-04T06:08:37.350Z,8.38
2018-12-04T06:11:04.417Z,8.56
2018-12-04T06:13:32.180Z,8.69
2018-12-04T06:15:59.853Z,8.63
2018-12-04T06:18:26.809Z,8.56
2018-12-04T06:20:53.763Z,8.50
2018-12-04T06:23:20.770Z,8.38
2018-12-04T06:25:47.778Z,8.63
2018-12-04T06:28:14.737Z,8.31
2018-12-04T06:30:41.761Z,8.38
2018-12-04T06:33:08.733Z,8.31
2018-12-04T06:35:35.711Z,8.44
2018-12-04T06:38:02.674Z,8.44
2018-12-04T06:40:29.635Z,8.31
2018-12-04T06:42:56.590Z,8.31
2018-12-04T06:45:23.582Z,8.56
2018-12-04T06:47:50.607Z,8.25
2018-12-04T06:50:17.558Z,8.25
2018-12-04T06:52:44.534Z,8.44
2018-12-04T06:55:11.496Z,8.44
2018-12-04T06:57:38.622Z,8.38
2018-12-04T07:00:06.419Z,8.63
2018-12-04T07:02:33.531Z,8.50
2018-12-04T07:05:00.541Z,8.44
2018-12-04T07:07:28.375Z,8.50
2018-12-04T07:09:55.387Z,8.56
2018-12-04T07:12:22.330Z,8.38
2018-12-04T07:14:49.278Z,8.31
2018-12-04T07:17:16.261Z,8.31
2018-12-04T07:19:43.215Z,8.31
2018-12-04T07:22:10.174Z,8.50
2018-12-04T07:24:37.150Z,8.31
2018-12-04T07:27:04.094Z,8.25
2018-12-04T07:29:31.047Z,8.44
2018-12-04T07:31:58.243Z,8.25
2018-12-04T07:34:25.252Z,8.38
2018-12-04T07:36:52.212Z,8.38
2018-12-04T07:39:19.168Z,8.06
2018-12-04T07:41:46.970Z,8.19
2018-12-04T07:44:13.920Z,7.94
2018-12-04T07:46:41.450Z,8.00
2018-12-04T07:49:08.401Z,8.25
2018-12-04T07:51:35.385Z,7.94
2018-12-04T07:54:03.046Z,8.06
2018-12-04T07:56:30.729Z,7.94
2018-12-04T07:58:57.741Z,8.19
2018-12-04T08:01:24.749Z,8.19
2018-12-04T08:03:51.837Z,7.81
2018-12-04T08:06:18.869Z,7.81
2018-12-04T08:08:45.839Z,8.00
2018-12-04T08:11:12.899Z,7.81
2018-12-04T08:13:40.960Z,8.06
2018-12-04T08:16:07.979Z,7.81
2018-12-04T08:18:34.936Z,7.94
2018-12-04T08:21:01.912Z,7.87
2018-12-04T08:23:28.858Z,7.81
2018-12-04T08:25:55.899Z,8.06
2018-12-04T08:28:22.884Z,7.94
2018-12-04T08:30:49.873Z,7.94
2018-12-04T08:33:16.888Z,8.06
2018-12-04T08:35:43.832Z,7.56
2018-12-04T08:38:11.170Z,7.50
2018-12-04T08:40:38.112Z,7.62
2018-12-04T08:43:05.134Z,7.62
2018-12-04T08:45:33.950Z,7.56
2018-12-04T08:48:00.979Z,7.50
2018-12-04T08:50:32.295Z,7.75
2018-12-04T08:52:59.313Z,7.56
2018-12-04T08:55:26.555Z,7.87
2018-12-04T08:58:03.103Z,7.69
2018-12-04T09:00:31.387Z,7.81
2018-12-04T09:02:59.126Z,7.75
2018-12-04T09:05:26.124Z,7.87
2018-12-04T09:07:53.054Z,7.87
2018-12-04T09:10:20.245Z,7.81
2018-12-04T09:12:47.234Z,7.69
2018-12-04T09:15:14.211Z,7.50
2018-12-04T09:17:41.214Z,7.62
2018-12-04T09:20:08.213Z,8.06
2018-12-04T09:22:35.177Z,7.87
2018-12-04T09:25:02.204Z,8.13
2018-12-04T09:27:29.236Z,7.94
2018-12-04T09:29:56.555Z,7.87
2018-12-04T09:32:23.574Z,7.81
2018-12-04T09:34:50.570Z,8.06
2018-12-04T09:37:17.574Z,7.94
2018-12-04T09:39:44.607Z,8.00
2018-12-04T09:42:11.570Z,8.38
2018-12-04T09:44:38.533Z,8.13
2018-12-04T09:47:05.551Z,8.31
2018-12-04T09:49:32.545Z,8.25
2018-12-04T09:51:59.628Z,8.25
2018-12-04T09:54:26.559Z,8.44
2018-12-04T09:56:53.505Z,8.19
2018-12-04T09:59:20.497Z,8.31
2018-12-04T10:01:49.605Z,8.25
2018-12-04T10:04:16.619Z,8.25
2018-12-04T10:06:43.573Z,8.25
2018-12-04T10:09:10.550Z,8.25
2018-12-04T10:11:37.507Z,8.19
2018-12-04T10:14:04.472Z,8.19
2018-12-04T10:16:31.503Z,8.13
2018-12-04T10:18:58.746Z,8.13
2018-12-04T10:21:25.851Z,8.25
2018-12-04T10:23:52.872Z,8.06
2018-12-04T10:26:20.203Z,8.25
2018-12-04T10:28:47.223Z,8.38
2018-12-04T10:31:14.185Z,8.25
2018-12-04T10:33:41.972Z,8.31
2018-12-04T10:36:09.048Z,8.31
2018-12-04T10:38:36.214Z,8.19
2018-12-04T10:41:03.263Z,8.44
2018-12-04T10:43:30.306Z,8.13
2018-12-04T10:45:57.344Z,8.25
2018-12-04T10:48:24.361Z,8.56
2018-12-04T10:50:51.449Z,8.31
2018-12-04T10:53:18.472Z,8.13
2018-12-04T10:55:45.537Z,8.44
2018-12-04T10:58:12.462Z,8.25
2018-12-04T11:00:45.027Z,8.31
2018-12-04T11:03:13.175Z,8.00
2018-12-04T11:05:41.183Z,8.25
2018-12-04T11:08:08.173Z,8.25
2018-12-04T11:10:35.181Z,8.13
2018-12-04T11:13:25.066Z,8.13
2018-12-04T11:15:52.060Z,8.31
2018-12-04T11:18:19.268Z,8.13
2018-12-04T11:20:46.275Z,8.06
2018-12-04T11:23:13.259Z,8.19
2018-12-04T11:25:40.226Z,8.56
2018-12-04T11:28:07.230Z,8.44
2018-12-04T11:30:34.206Z,8.50
2018-12-04T11:33:01.165Z,8.56
2018-12-04T11:35:28.130Z,8.25
2018-12-04T11:37:55.114Z,8.56
2018-12-04T11:40:22.709Z,8.38
2018-12-04T11:42:49.779Z,8.56
2018-12-04T11:45:16.831Z,8.50
2018-12-04T11:47:44.345Z,8.56
2018-12-04T11:50:11.312Z,8.44
2018-12-04T11:52:38.389Z,8.25
2018-12-04T11:55:05.371Z,8.38
2018-12-04T11:57:32.324Z,8.38
2018-12-04T11:59:59.276Z,8.31
2018-12-04T12:02:27.195Z,8.19
2018-12-04T12:04:54.198Z,8.56
2018-12-04T12:07:21.515Z,8.31
2018-12-04T12:09:48.485Z,8.06
2018-12-04T12:12:15.466Z,7.81
2018-12-04T12:14:42.406Z,8.25
2018-12-04T12:17:09.389Z,7.87
2018-12-04T12:19:37.007Z,8.19
2018-12-04T12:22:03.957Z,8.19
2018-12-04T12:24:30.983Z,8.19
2018-12-04T12:26:57.983Z,8.06
2018-12-04T12:29:25.056Z,8.19
2018-12-04T12:31:52.021Z,8.25
2018-12-04T12:34:23.462Z,8.19
2018-12-04T12:36:46.777Z,8.25
2018-12-04T12:39:13.840Z,8.13
2018-12-04T12:41:41.438Z,8.31
2018-12-04T12:44:08.417Z,7.94
2018-12-04T12:46:35.448Z,8.06
2018-12-04T12:49:02.476Z,7.87
2018-12-04T12:51:30.123Z,8.00
2018-12-04T12:53:57.112Z,7.94
2018-12-04T12:56:24.052Z,7.94
2018-12-04T12:58:51.007Z,7.94
2018-12-04T13:01:18.511Z,7.87
2018-12-04T13:03:44.940Z,8.06
2018-12-04T13:06:11.927Z,8.00
2018-12-04T13:08:38.987Z,7.81
2018-12-04T13:16:00.671Z,8.00
2018-12-04T13:18:27.668Z,8.25
2018-12-04T13:20:54.632Z,8.13
2018-12-04T13:23:21.702Z,8.19
2018-12-04T13:25:48.751Z,8.19
2018-12-04T13:28:16.550Z,8.06
2018-12-04T13:30:43.522Z,8.25
2018-12-04T13:33:11.130Z,8.13
2018-12-04T13:35:38.230Z,8.13
2018-12-04T13:38:05.196Z,8.00
2018-12-04T13:40:32.353Z,8.06
2018-12-04T13:42:59.394Z,8.00
2018-12-04T13:45:26.465Z,7.94
2018-12-04T13:47:53.692Z,8.25
2018-12-04T13:50:20.716Z,8.19
2018-12-04T13:52:47.711Z,8.19
2018-12-04T13:55:14.807Z,8.25
2018-12-04T13:57:41.758Z,8.19
2018-12-04T14:00:08.827Z,8.00
2018-12-04T14:02:35.789Z,8.06
2018-12-04T14:05:08.000Z,7.75
2018-12-04T14:07:30.196Z,7.81
2018-12-04T14:09:57.225Z,7.69
2018-12-04T14:12:25.089Z,7.94
2018-12-04T14:14:52.100Z,7.81
2018-12-04T14:17:19.113Z,7.75
2018-12-04T14:19:46.126Z,7.94
2018-12-04T14:22:16.284Z,7.69
2018-12-04T14:24:40.230Z,7.87
2018-12-04T14:27:07.228Z,7.81
2018-12-04T14:29:34.215Z,7.81
2018-12-04T14:32:01.234Z,7.69
2018-12-04T14:34:28.215Z,7.62
2018-12-04T14:36:55.165Z,7.62
2018-12-04T14:39:22.142Z,7.62
2018-12-04T14:41:49.247Z,7.44
2018-12-04T14:44:16.205Z,7.37
2018-12-04T14:46:43.164Z,7.56
2018-12-04T14:49:11.277Z,7.62
2018-12-04T14:51:38.395Z,7.25
2018-12-04T14:54:05.324Z,7.44
2018-12-04T14:56:32.326Z,7.37
2018-12-04T14:58:59.404Z,7.44
2018-12-04T15:01:26.460Z,7.12
2018-12-04T15:03:53.453Z,7.19
2018-12-04T15:06:20.609Z,7.25
2018-12-04T15:08:48.623Z,7.31
2018-12-04T15:11:15.666Z,7.25
2018-12-04T15:13:42.686Z,7.00
2018-12-04T15:16:09.737Z,7.37
2018-12-04T15:18:36.856Z,7.12
2018-12-04T15:21:03.896Z,7.31
2018-12-04T15:23:30.824Z,7.25
2018-12-04T15:25:57.877Z,7.06
2018-12-04T15:28:24.983Z,7.06
2018-12-04T15:30:51.959Z,7.00
2018-12-04T15:33:18.953Z,7.00
2018-12-04T15:35:46.032Z,6.81
2018-12-04T15:38:12.991Z,7.12
2018-12-04T15:40:40.013Z,6.94
2018-12-04T15:43:07.130Z,6.94
2018-12-04T15:45:34.111Z,6.94
2018-12-04T15:48:01.203Z,6.81
2018-12-04T15:50:29.056Z,6.94
2018-12-04T15:52:56.253Z,6.81
2018-12-04T15:55:23.214Z,7.06
2018-12-04T15:57:50.306Z,6.81
2018-12-04T16:00:17.374Z,6.94
2018-12-04T16:02:44.358Z,6.87
2018-12-04T16:05:11.404Z,6.75
2018-12-04T16:07:38.450Z,6.69
2018-12-04T16:10:08.555Z,6.87
2018-12-04T16:12:35.545Z,6.37
2018-12-04T16:15:02.597Z,6.44
2018-12-04T16:17:29.549Z,6.50
2018-12-04T16:19:57.507Z,6.75
2018-12-04T16:22:24.487Z,6.62
2018-12-04T16:24:52.265Z,6.75
2018-12-04T16:27:19.203Z,6.56
2018-12-04T16:29:46.241Z,6.75
2018-12-04T16:32:13.295Z,6.62
2018-12-04T16:34:41.012Z,6.62
2018-12-04T16:37:07.309Z,6.62
2018-12-04T16:39:34.307Z,6.56
2018-12-04T16:42:01.361Z,6.62
2018-12-04T16:44:28.387Z,6.56
2018-12-04T16:46:55.412Z,6.62
2018-12-04T16:49:22.386Z,6.50
2018-12-04T16:51:49.508Z,6.37
2018-12-04T16:54:16.694Z,6.12
2018-12-04T16:56:43.704Z,6.31
2018-12-04T16:59:34.806Z,6.44
2018-12-04T17:02:02.062Z,6.31
2018-12-04T17:04:29.162Z,6.31
2018-12-04T17:11:51.622Z,6.12
2018-12-04T17:14:18.570Z,6.12
2018-12-04T17:16:45.529Z,6.12
2018-12-04T17:19:12.640Z,6.12
2018-12-04T17:21:40.512Z,6.06
2018-12-04T17:24:07.554Z,6.25
2018-12-04T17:26:34.564Z,5.94
2018-12-04T17:29:02.151Z,6.12
2018-12-04T17:31:29.118Z,5.94
2018-12-04T17:33:56.375Z,6.19
2018-12-04T17:36:23.524Z,6.25
2018-12-04T17:38:50.501Z,6.19
2018-12-04T17:41:17.519Z,6.06
2018-12-04T17:43:44.582Z,6.06
2018-12-04T17:46:11.553Z,6.00
2018-12-04T17:48:38.491Z,6.00
2018-12-04T17:51:18.802Z,6.00
2018-12-04T17:53:46.398Z,6.12
2018-12-04T17:59:37.474Z,6.19
2018-12-04T18:02:48.834Z,6.12
2018-12-04T18:06:30.558Z,6.00
2018-12-04T18:08:58.233Z,5.94
2018-12-04T18:11:25.524Z,5.94
2018-12-04T18:13:53.277Z,5.81
2018-12-04T18:19:29.038Z,5.75
2018-12-04T18:25:06.463Z,5.81
2018-12-04T18:27:33.783Z,6.12
2018-12-04T18:35:54.267Z,5.62
2018-12-04T18:38:35.787Z,5.69
2018-12-04T18:41:08.117Z,6.00
2018-12-04T18:43:35.748Z,5.75
2018-12-04T18:46:03.808Z,5.81
2018-12-04T18:51:12.048Z,5.62
2018-12-04T18:53:39.147Z,5.62
2018-12-04T18:56:08.268Z,5.44
2018-12-04T18:59:04.836Z,5.69
2018-12-04T19:01:51.421Z,5.56
2018-12-04T19:04:18.795Z,5.37
2018-12-04T19:24:22.622Z,5.37
2018-12-04T19:26:49.946Z,5.31
2018-12-04T19:29:18.662Z,5.25
2018-12-04T19:31:45.722Z,5.12
2018-12-04T19:34:14.404Z,5.44
2018-12-04T19:36:41.419Z,5.56
2018-12-04T19:39:09.161Z,5.44
2018-12-04T19:41:36.517Z,5.62
2018-12-04T19:44:03.770Z,5.31
2018-12-04T19:46:31.039Z,5.44
2018-12-04T19:48:58.396Z,5.31
2018-12-04T19:51:28.206Z,5.19
2018-12-04T19:53:55.916Z,5.12
2018-12-04T19:56:25.099Z,5.12
2018-12-04T19:58:52.282Z,5.37
2018-12-04T20:01:21.774Z,5.25
2018-12-04T20:03:49.039Z,4.94
2018-12-04T20:06:16.428Z,5.25
2018-12-04T20:08:49.271Z,5.31
2018-12-04T20:11:16.425Z,5.12
2018-12-04T20:13:43.522Z,5.06
2018-12-04T20:16:10.822Z,5.31
2018-12-04T20:18:38.032Z,5.12
2018-12-04T20:21:05.130Z,5.25
2018-12-04T20:23:34.542Z,5.37
2018-12-04T20:26:04.849Z,5.19
2018-12-04T20:28:32.744Z,5.06
2018-12-04T20:30:59.828Z,5.00
2018-12-04T20:33:28.482Z,4.94
2018-12-04T20:35:55.564Z,5.00
2018-12-04T20:38:22.788Z,4.94
2018-12-04T20:40:49.830Z,5.06
2018-12-04T20:43:17.682Z,4.81
2018-12-04T20:45:45.321Z,4.94
2018-12-04T21:03:00.269Z,4.81
2018-12-04T21:05:27.545Z,4.87
2018-12-04T21:07:54.710Z,4.75
2018-12-04T21:10:29.355Z,4.94
2018-12-04T21:12:57.182Z,5.12
2018-12-04T21:15:24.365Z,4.94
2018-12-04T21:17:51.407Z,4.87
2018-12-04T21:20:19.490Z,4.87
2018-12-04T21:22:49.162Z,4.94
2018-12-04T21:25:16.342Z,4.75
2018-12-04T21:27:49.290Z,5.06
2018-12-04T21:30:22.294Z,4.75
2018-12-04T21:32:56.050Z,5.19
2018-12-04T21:35:28.834Z,5.19
2018-12-04T21:38:22.202Z,4.94
2018-12-04T21:40:55.200Z,4.75
2018-12-04T21:43:28.642Z,4.81
2018-12-04T21:46:03.147Z,4.87
2018-12-04T21:48:30.154Z,4.94
2018-12-04T21:50:57.210Z,4.87
2018-12-04T21:53:25.537Z,4.75
2018-12-04T21:55:52.899Z,5.00
2018-12-04T21:58:20.238Z,4.56
2018-12-04T22:00:47.326Z,5.00
2018-12-04T22:03:14.451Z,4.87
2018-12-04T22:05:41.664Z,4.50
2018-12-04T22:08:08.834Z,4.87
2018-12-04T22:10:35.900Z,4.81
2018-12-04T22:13:03.096Z,4.69
2018-12-04T22:15:30.353Z,4.81
2018-12-04T22:17:57.398Z,4.69
2018-12-04T22:20:24.486Z,4.87
2018-12-04T22:22:51.623Z,4.81
2018-12-04T22:25:19.351Z,4.81
2018-12-04T22:27:46.710Z,4.87
2018-12-04T22:30:14.377Z,4.81
2018-12-04T22:32:41.553Z,4.69
2018-12-04T22:35:08.687Z,4.75
2018-12-04T22:37:36.620Z,4.69
2018-12-04T22:40:04.274Z,4.62
2018-12-04T22:42:36.150Z,4.75
2018-12-04T22:45:09.215Z,4.87
2018-12-04T22:47:36.266Z,4.87
2018-12-04T22:50:03.372Z,4.75
2018-12-04T22:52:34.687Z,4.69
2018-12-04T22:55:02.316Z,4.81
2018-12-04T22:57:29.325Z,4.87
2018-12-04T22:59:56.312Z,4.75
2018-12-04T23:02:23.366Z,4.44
2018-12-04T23:04:50.632Z,4.69
2018-12-04T23:07:17.672Z,4.69
2018-12-04T23:09:44.650Z,4.62
2018-12-04T23:12:11.653Z,4.44
2018-12-04T23:14:38.597Z,4.69
2018-12-04T23:17:05.671Z,4.81
2018-12-04T23:19:32.695Z,4.62
2018-12-04T23:21:59.683Z,4.50
2018-12-04T23:24:26.745Z,4.56
2018-12-04T23:26:53.745Z,4.37
2018-12-04T23:29:20.915Z,4.62
2018-12-04T23:31:47.897Z,4.56
2018-12-04T23:34:14.879Z,4.69
2018-12-04T23:36:41.875Z,4.62
2018-12-04T23:39:08.946Z,4.44
2018-12-04T23:41:36.002Z,4.56
2018-12-04T23:44:03.032Z,4.50
2018-12-04T23:46:30.731Z,4.25
2018-12-04T23:48:57.780Z,4.31
2018-12-04T23:51:24.762Z,4.31
2018-12-04T23:53:51.802Z,4.44
2018-12-04T23:56:18.737Z,4.50
2018-12-04T23:58:45.766Z,4.31
